^^
Station Historical Data
Daily Summary for January 24, 2021 Units:  English    Metric   Both
Daily Weekly Monthly Yearly
  High: Low: Average:
Temperature: 27.8 °F 18.7 °F 24.5 °F
Dew Point: 24.4 °F 14.1 °F 20.1 °F
Humidity: 87% 79% 83%
Wind Speed: 7mph 0mph 2.2mph
Wind Gust: 9mph - -
Wind- - South
Pressure: 30.33 in 30.10 in -
Precipitation: 0.00 in    
 
 
Tabular Data for January 24, 2021
Time Temperature Dew Point Pressure Wind Wind Speed Wind Gust Humidity Rainfall Rate (Hourly) solar
00:00 18.7 °F 14.1 °F 30.33 in SSE 1 mph 2 mph 82% 0.00 in 0 W/m2
00:05 18.7 °F 14.1 °F 30.33 in SSE 1 mph 2 mph 82% 0.00 in 0 W/m2
00:10 18.9 °F 14.3 °F 30.33 in SSE 1 mph 2 mph 82% 0.00 in 0 W/m2
00:15 18.9 °F 14.3 °F 30.33 in SSE 2 mph 2 mph 82% 0.00 in 0 W/m2
00:20 18.9 °F 14.6 °F 30.33 in SSE 2 mph 2 mph 83% 0.00 in 0 W/m2
00:25 18.9 °F 14.3 °F 30.32 in SSE 2 mph 2 mph 82% 0.00 in 0 W/m2
00:30 18.9 °F 14.6 °F 30.32 in SSE 1 mph 2 mph 83% 0.00 in 0 W/m2
00:35 19 °F 14.7 °F 30.32 in SSE 2 mph 2 mph 83% 0.00 in 0 W/m2
00:40 19.1 °F 14.5 °F 30.32 in SSE 1 mph 1 mph 82% 0.00 in 0 W/m2
00:45 19.1 °F 14.5 °F 30.32 in SSE 1 mph 1 mph 82% 0.00 in 0 W/m2
00:50 19.1 °F 14.5 °F 30.32 in South 1 mph 1 mph 82% 0.00 in 0 W/m2
00:55 19.2 °F 14.6 °F 30.32 in South 1 mph 1 mph 82% 0.00 in 0 W/m2
01:00 19.2 °F 14.6 °F 30.32 in South 1 mph 1 mph 82% 0.00 in 0 W/m2
01:05 19.3 °F 14.7 °F 30.32 in South 1 mph 1 mph 82% 0.00 in 0 W/m2
01:10 19.3 °F 14.7 °F 30.32 in South 1 mph 2 mph 82% 0.00 in 0 W/m2
01:15 19.5 °F 14.9 °F 30.32 in South 1 mph 2 mph 82% 0.00 in 0 W/m2
01:20 19.6 °F 15 °F 30.32 in South 1 mph 1 mph 82% 0.00 in 0 W/m2
01:25 19.8 °F 15.2 °F 30.32 in SSE 2 mph 2 mph 82% 0.00 in 0 W/m2
01:30 19.9 °F 15.3 °F 30.32 in SSE 1 mph 2 mph 82% 0.00 in 0 W/m2
01:35 20 °F 15.1 °F 30.31 in SSE 1 mph 2 mph 81% 0.00 in 0 W/m2
01:40 20 °F 15.1 °F 30.31 in SSE 1 mph 2 mph 81% 0.00 in 0 W/m2
01:45 20.1 °F 15.2 °F 30.31 in South 1 mph 2 mph 81% 0.00 in 0 W/m2
01:50 20.3 °F 15.4 °F 30.31 in SSW 2 mph 2 mph 81% 0.00 in 0 W/m2
01:55 20.4 °F 15.5 °F 30.31 in SSE 2 mph 2 mph 81% 0.00 in 0 W/m2
02:00 20.5 °F 15.6 °F 30.31 in SSE 2 mph 2 mph 81% 0.00 in 0 W/m2
02:05 20.7 °F 15.5 °F 30.31 in West 1 mph 2 mph 80% 0.00 in 0 W/m2
02:10 20.8 °F 15.6 °F 30.31 in South 1 mph 1 mph 80% 0.00 in 0 W/m2
02:15 20.8 °F 15.6 °F 30.31 in SW 1 mph 1 mph 80% 0.00 in 0 W/m2
02:20 20.8 °F 15.6 °F 30.31 in North 2 mph 2 mph 80% 0.00 in 0 W/m2
02:25 20.8 °F 15.6 °F 30.31 in ENE 2 mph 2 mph 80% 0.00 in 0 W/m2
02:30 20.8 °F 15.6 °F 30.31 in NW 2 mph 2 mph 80% 0.00 in 0 W/m2
02:35 20.8 °F 15.6 °F 30.31 in NW 2 mph 3 mph 80% 0.00 in 0 W/m2
02:40 20.8 °F 15.6 °F 30.31 in NNW 2 mph 2 mph 80% 0.00 in 0 W/m2
02:45 20.7 °F 15.5 °F 30.31 in NE 2 mph 2 mph 80% 0.00 in 0 W/m2
02:50 20.7 °F 15.5 °F 30.31 in NNW 2 mph 2 mph 80% 0.00 in 0 W/m2
02:55 20.6 °F 15.4 °F 30.31 in East 1 mph 2 mph 80% 0.00 in 0 W/m2
03:00 20.6 °F 15.4 °F 30.30 in SW 1 mph 1 mph 80% 0.00 in 0 W/m2
03:05 20.5 °F 15.3 °F 30.30 in ENE 1 mph 1 mph 80% 0.00 in 0 W/m2
03:10 20.5 °F 15.3 °F 30.30 in East 1 mph 2 mph 80% 0.00 in 0 W/m2
03:15 20.5 °F 15.3 °F 30.30 in South 1 mph 2 mph 80% 0.00 in 0 W/m2
03:20 20.5 °F 15.3 °F 30.30 in NE 1 mph 1 mph 80% 0.00 in 0 W/m2
03:25 20.5 °F 15.3 °F 30.30 in SW 1 mph 2 mph 80% 0.00 in 0 W/m2
03:30 20.5 °F 15.3 °F 30.30 in North 1 mph 3 mph 80% 0.00 in 0 W/m2
03:35 20.5 °F 15.3 °F 30.30 in WNW 1 mph 3 mph 80% 0.00 in 0 W/m2
03:40 20.4 °F 15.2 °F 30.30 in NE 1 mph 1 mph 80% 0.00 in 0 W/m2
03:45 20.4 °F 15.2 °F 30.30 in ESE 1 mph 2 mph 80% 0.00 in 0 W/m2
03:50 20.3 °F 15.1 °F 30.30 in NE 1 mph 2 mph 80% 0.00 in 0 W/m2
03:55 20.2 °F 14.7 °F 30.30 in ESE 1 mph 2 mph 79% 0.00 in 0 W/m2
04:00 20.2 °F 15 °F 30.30 in ESE 1 mph 1 mph 80% 0.00 in 0 W/m2
04:05 20.1 °F 14.9 °F 30.30 in ENE 1 mph 1 mph 80% 0.00 in 0 W/m2
04:10 20 °F 14.8 °F 30.30 in ESE 1 mph 1 mph 80% 0.00 in 0 W/m2
04:15 20 °F 14.8 °F 30.30 in SE 1 mph 2 mph 80% 0.00 in 0 W/m2
04:20 20 °F 14.8 °F 30.30 in South 1 mph 1 mph 80% 0.00 in 0 W/m2
04:25 19.9 °F 14.7 °F 30.30 in SSE 1 mph 1 mph 80% 0.00 in 0 W/m2
04:30 20 °F 14.8 °F 30.30 in Calm     80% 0.00 in 0 W/m2
04:35 20 °F 14.8 °F 30.29 in South 1 mph 1 mph 80% 0.00 in 0 W/m2
04:40 20 °F 14.8 °F 30.29 in SSE 1 mph 1 mph 80% 0.00 in 0 W/m2
04:45 20.1 °F 14.9 °F 30.29 in SSE 1 mph 2 mph 80% 0.00 in 0 W/m2
04:50 20.1 °F 14.9 °F 30.29 in SW 1 mph 1 mph 80% 0.00 in 0 W/m2
04:55 20.2 °F 15 °F 30.29 in East 1 mph 1 mph 80% 0.00 in 0 W/m2
05:00 20.3 °F 15.1 °F 30.29 in East 1 mph 1 mph 80% 0.00 in 0 W/m2
05:05 20.3 °F 15.1 °F 30.29 in North 1 mph 2 mph 80% 0.00 in 0 W/m2
05:10 20.4 °F 15.2 °F 30.29 in NNW 1 mph 1 mph 80% 0.00 in 0 W/m2
05:15 20.4 °F 15.2 °F 30.29 in NNW 2 mph 2 mph 80% 0.00 in 0 W/m2
05:20 20.4 °F 15.2 °F 30.29 in NNE 2 mph 3 mph 80% 0.00 in 0 W/m2
05:25 20.5 °F 15.3 °F 30.29 in NW 2 mph 3 mph 80% 0.00 in 0 W/m2
05:30 20.5 °F 15 °F 30.28 in NNW 2 mph 2 mph 79% 0.00 in 0 W/m2
05:35 20.6 °F 15.4 °F 30.28 in NE 2 mph 2 mph 80% 0.00 in 0 W/m2
05:40 20.6 °F 15.4 °F 30.29 in ENE 2 mph 2 mph 80% 0.00 in 0 W/m2
05:45 20.7 °F 15.5 °F 30.29 in North 2 mph 2 mph 80% 0.00 in 0 W/m2
05:50 20.7 °F 15.5 °F 30.29 in NNW 2 mph 2 mph 80% 0.00 in 0 W/m2
05:55 20.7 °F 15.5 °F 30.28 in NNW 2 mph 2 mph 80% 0.00 in 0 W/m2
06:00 20.7 °F 15.5 °F 30.28 in NNW 2 mph 2 mph 80% 0.00 in 0 W/m2
06:05 20.8 °F 15.6 °F 30.28 in NW 1 mph 2 mph 80% 0.00 in 0 W/m2
06:10 20.8 °F 15.6 °F 30.28 in North 1 mph 1 mph 80% 0.00 in 0 W/m2
06:15 20.9 °F 15.7 °F 30.28 in East 1 mph 1 mph 80% 0.00 in 0 W/m2
06:20 21 °F 15.8 °F 30.28 in WNW 1 mph 1 mph 80% 0.00 in 0 W/m2
06:25 21 °F 15.8 °F 30.27 in East 1 mph 1 mph 80% 0.00 in 0 W/m2
06:30 21.1 °F 15.9 °F 30.27 in East 1 mph 1 mph 80% 0.00 in 0 W/m2
06:35 21.3 °F 16.1 °F 30.28 in SSE 1 mph 1 mph 80% 0.00 in 0 W/m2
06:40 21.4 °F 16.2 °F 30.28 in East 1 mph 1 mph 80% 0.00 in 0 W/m2
06:45 21.4 °F 16.2 °F 30.28 in ESE 1 mph 1 mph 80% 0.00 in 0 W/m2
06:50 21.5 °F 16.3 °F 30.27 in NW 1 mph 1 mph 80% 0.00 in 0 W/m2
06:55 21.5 °F 16.3 °F 30.27 in SW 1 mph 1 mph 80% 0.00 in 0 W/m2
07:00 21.6 °F 16.4 °F 30.27 in SE 1 mph 1 mph 80% 0.00 in 0 W/m2
07:05 21.7 °F 16.5 °F 30.27 in South 1 mph 1 mph 80% 0.00 in 0 W/m2
07:10 21.9 °F 16.7 °F 30.26 in SSE 1 mph 2 mph 80% 0.00 in 0 W/m2
07:15 21.9 °F 16.7 °F 30.26 in SSE 1 mph 3 mph 80% 0.00 in 0 W/m2
07:20 21.9 °F 16.7 °F 30.26 in SSE 2 mph 2 mph 80% 0.00 in 0 W/m2
07:25 22 °F 16.8 °F 30.26 in SE 2 mph 3 mph 80% 0.00 in 0 W/m2
07:30 22 °F 16.8 °F 30.25 in SE 2 mph 2 mph 80% 0.00 in 0 W/m2
07:35 22 °F 16.8 °F 30.26 in SSE 2 mph 2 mph 80% 0.00 in 0 W/m2
07:40 22 °F 16.8 °F 30.25 in South 1 mph 1 mph 80% 0.00 in 0 W/m2
07:45 22.1 °F 16.9 °F 30.25 in SE 1 mph 2 mph 80% 0.00 in 0 W/m2
07:50 22.2 °F 17 °F 30.25 in SSE 1 mph 1 mph 80% 0.00 in 0 W/m2
07:55 22.2 °F 17 °F 30.25 in ESE 2 mph 2 mph 80% 0.00 in 0 W/m2
08:00 22.3 °F 17.1 °F 30.25 in SSE 2 mph 2 mph 80% 0.00 in 0 W/m2
08:05 22.4 °F 17.2 °F 30.25 in South 1 mph 2 mph 80% 0.00 in 5 W/m2
08:10 22.5 °F 17.3 °F 30.25 in East 1 mph 1 mph 80% 0.00 in 7 W/m2
08:15 22.5 °F 17.3 °F 30.25 in WSW 1 mph 1 mph 80% 0.00 in 9 W/m2
08:20 22.6 °F 17.4 °F 30.25 in SSE 1 mph 3 mph 80% 0.00 in 14 W/m2
08:25 22.7 °F 17.5 °F 30.25 in South 1 mph 3 mph 80% 0.00 in 18 W/m2
08:30 22.8 °F 17.6 °F 30.25 in ESE 1 mph 1 mph 80% 0.00 in 21 W/m2
08:35 23 °F 17.7 °F 30.25 in ESE 2 mph 2 mph 80% 0.00 in 28 W/m2
08:40 23.1 °F 17.8 °F 30.24 in ESE 2 mph 2 mph 80% 0.00 in 35 W/m2
08:45 23.3 °F 18 °F 30.24 in SE 2 mph 3 mph 80% 0.00 in 39 W/m2
08:50 23.3 °F 18 °F 30.24 in SSE 3 mph 3 mph 80% 0.00 in 47 W/m2
08:55 23.3 °F 18 °F 30.24 in SSE 3 mph 5 mph 80% 0.00 in 49 W/m2
09:00 23.4 °F 18.1 °F 30.24 in ESE 2 mph 2 mph 80% 0.00 in 51 W/m2
09:05 23.6 °F 18.3 °F 30.24 in NNW 2 mph 2 mph 80% 0.00 in 47 W/m2
09:10 23.8 °F 18.2 °F 30.24 in WNW 2 mph 3 mph 79% 0.00 in 49 W/m2
09:15 23.9 °F 18.6 °F 30.24 in NE 2 mph 3 mph 80% 0.00 in 53 W/m2
09:20 24 °F 18.4 °F 30.24 in WNW 2 mph 2 mph 79% 0.00 in 56 W/m2
09:25 24.1 °F 18.5 °F 30.24 in NW 2 mph 2 mph 79% 0.00 in 62 W/m2
09:30 24.2 °F 18.6 °F 30.24 in NW 2 mph 2 mph 79% 0.00 in 67 W/m2
09:35 24.4 °F 18.8 °F 30.24 in NE 2 mph 4 mph 79% 0.00 in 70 W/m2
09:40 24.5 °F 19.2 °F 30.24 in ENE 2 mph 2 mph 80% 0.00 in 79 W/m2
09:45 24.5 °F 19.2 °F 30.24 in SSE 2 mph 2 mph 80% 0.00 in 84 W/m2
09:50 24.6 °F 19.3 °F 30.24 in SE 2 mph 2 mph 80% 0.00 in 88 W/m2
09:55 24.7 °F 19.7 °F 30.24 in SW 2 mph 2 mph 81% 0.00 in 95 W/m2
10:00 24.9 °F 19.9 °F 30.24 in South 1 mph 2 mph 81% 0.00 in 100 W/m2
10:05 25 °F 20 °F 30.23 in SSW 2 mph 2 mph 81% 0.00 in 105 W/m2
10:10 25.2 °F 20.2 °F 30.23 in SSE 2 mph 2 mph 81% 0.00 in 109 W/m2
10:15 25.2 °F 19.9 °F 30.23 in South 2 mph 2 mph 80% 0.00 in 100 W/m2
10:20 25.5 °F 20.5 °F 30.23 in West 1 mph 1 mph 81% 0.00 in 113 W/m2
10:25 25.7 °F 20.4 °F 30.23 in North 1 mph 2 mph 80% 0.00 in 142 W/m2
10:30 26 °F 20.7 °F 30.23 in NNE 2 mph 2 mph 80% 0.00 in 149 W/m2
10:35 26.1 °F 20.5 °F 30.23 in NE 3 mph 3 mph 79% 0.00 in 134 W/m2
10:40 26.2 °F 20.6 °F 30.23 in SSE 3 mph 3 mph 79% 0.00 in 125 W/m2
10:45 26.2 °F 20.6 °F 30.23 in NW 3 mph 3 mph 79% 0.00 in 127 W/m2
10:50 26.3 °F 20.7 °F 30.23 in NNE 3 mph 4 mph 79% 0.00 in 128 W/m2
10:55 26.3 °F 20.7 °F 30.23 in NW 3 mph 4 mph 79% 0.00 in 127 W/m2
11:00 26.4 °F 20.8 °F 30.23 in NNW 3 mph 3 mph 79% 0.00 in 104 W/m2
11:05 26.5 °F 20.9 °F 30.23 in North 3 mph 3 mph 79% 0.00 in 95 W/m2
11:10 26.5 °F 21.2 °F 30.22 in ESE 3 mph 4 mph 80% 0.00 in 102 W/m2
11:15 26.6 °F 21.3 °F 30.22 in North 3 mph 4 mph 80% 0.00 in 116 W/m2
11:20 26.7 °F 21.4 °F 30.22 in NNW 3 mph 4 mph 80% 0.00 in 123 W/m2
11:25 26.6 °F 21.3 °F 30.22 in East 4 mph 4 mph 80% 0.00 in 125 W/m2
11:30 26.6 °F 21.6 °F 30.22 in WNW 4 mph 5 mph 81% 0.00 in 128 W/m2
11:35 26.6 °F 21.8 °F 30.22 in NNW 3 mph 5 mph 82% 0.00 in 135 W/m2
11:40 26.8 °F 22 °F 30.21 in NNE 3 mph 3 mph 82% 0.00 in 162 W/m2
11:45 26.7 °F 22.2 °F 30.21 in North 4 mph 4 mph 83% 0.00 in 160 W/m2
11:50 26.6 °F 22.4 °F 30.21 in WNW 4 mph 4 mph 84% 0.00 in 176 W/m2
11:55 26.5 °F 22.3 °F 30.21 in North 3 mph 4 mph 84% 0.00 in 185 W/m2
12:00 26.5 °F 22.6 °F 30.20 in NNE 3 mph 4 mph 85% 0.00 in 195 W/m2
12:05 26.4 °F 22.5 °F 30.20 in NNW 3 mph 4 mph 85% 0.00 in 193 W/m2
12:10 26.5 °F 22.9 °F 30.20 in NNE 3 mph 5 mph 86% 0.00 in 209 W/m2
12:15 26.4 °F 22.8 °F 30.20 in NW 3 mph 5 mph 86% 0.00 in 190 W/m2
12:20 26.3 °F 23 °F 30.19 in NNE 3 mph 3 mph 87% 0.00 in 185 W/m2
12:25 26.1 °F 22.8 °F 30.19 in North 3 mph 4 mph 87% 0.00 in 163 W/m2
12:30 26.1 °F 22.8 °F 30.18 in North 3 mph 3 mph 87% 0.00 in 165 W/m2
12:35 26.1 °F 22.8 °F 30.18 in East 3 mph 3 mph 87% 0.00 in 163 W/m2
12:40 26.2 °F 22.9 °F 30.17 in SW 3 mph 4 mph 87% 0.00 in 162 W/m2
12:45 26.2 °F 22.9 °F 30.17 in NW 3 mph 4 mph 87% 0.00 in 144 W/m2
12:50 26.2 °F 22.9 °F 30.16 in WNW 3 mph 4 mph 87% 0.00 in 148 W/m2
12:55 26.3 °F 23 °F 30.16 in WSW 3 mph 4 mph 87% 0.00 in 162 W/m2
13:00 26.3 °F 23 °F 30.16 in NNE 3 mph 3 mph 87% 0.00 in 181 W/m2
13:05 26.5 °F 23.2 °F 30.16 in SE 3 mph 4 mph 87% 0.00 in 197 W/m2
13:10 26.5 °F 23.2 °F 30.16 in East 3 mph 3 mph 87% 0.00 in 218 W/m2
13:15 26.8 °F 23.4 °F 30.15 in NE 3 mph 3 mph 87% 0.00 in 227 W/m2
13:20 26.9 °F 23.5 °F 30.15 in WSW 3 mph 3 mph 87% 0.00 in 230 W/m2
13:25 26.9 °F 23.3 °F 30.15 in SE 3 mph 3 mph 86% 0.00 in 221 W/m2
13:30 27 °F 23.4 °F 30.15 in NW 3 mph 4 mph 86% 0.00 in 202 W/m2
13:35 27 °F 23.4 °F 30.14 in NW 3 mph 4 mph 86% 0.00 in 186 W/m2
13:40 27 °F 23.4 °F 30.14 in ESE 3 mph 3 mph 86% 0.00 in 188 W/m2
13:45 27 °F 23.4 °F 30.14 in NNE 3 mph 3 mph 86% 0.00 in 186 W/m2
13:50 27.2 °F 23.8 °F 30.14 in NW 3 mph 3 mph 87% 0.00 in 193 W/m2
13:55 27.3 °F 23.9 °F 30.13 in ESE 3 mph 3 mph 87% 0.00 in 214 W/m2
14:00 27.4 °F 23.8 °F 30.13 in SSW 3 mph 3 mph 86% 0.00 in 181 W/m2
14:05 27.3 °F 23.7 °F 30.13 in WNW 3 mph 3 mph 86% 0.00 in 171 W/m2
14:10 27.4 °F 23.8 °F 30.12 in NNE 3 mph 3 mph 86% 0.00 in 158 W/m2
14:15 27.4 °F 23.8 °F 30.12 in North 3 mph 3 mph 86% 0.00 in 144 W/m2
14:20 27.5 °F 23.9 °F 30.12 in North 3 mph 3 mph 86% 0.00 in 151 W/m2
14:25 27.5 °F 23.9 °F 30.12 in NE 3 mph 3 mph 86% 0.00 in 158 W/m2
14:30 27.6 °F 24 °F 30.12 in ESE 3 mph 3 mph 86% 0.00 in 149 W/m2
14:35 27.6 °F 24 °F 30.12 in NNE 3 mph 3 mph 86% 0.00 in 137 W/m2
14:40 27.6 °F 24 °F 30.12 in WNW 3 mph 4 mph 86% 0.00 in 118 W/m2
14:45 27.5 °F 23.9 °F 30.12 in NW 3 mph 4 mph 86% 0.00 in 128 W/m2
14:50 27.6 °F 24 °F 30.11 in North 3 mph 3 mph 86% 0.00 in 118 W/m2
14:55 27.6 °F 23.7 °F 30.11 in NNW 3 mph 3 mph 85% 0.00 in 107 W/m2
15:00 27.6 °F 24 °F 30.11 in WNW 3 mph 3 mph 86% 0.00 in 97 W/m2
15:05 27.7 °F 24.1 °F 30.11 in NNE 3 mph 4 mph 86% 0.00 in 81 W/m2
15:10 27.6 °F 24 °F 30.11 in ENE 3 mph 3 mph 86% 0.00 in 83 W/m2
15:15 27.7 °F 24.1 °F 30.11 in ESE 2 mph 3 mph 86% 0.00 in 81 W/m2
15:20 27.8 °F 24.2 °F 30.10 in NW 2 mph 3 mph 86% 0.00 in 79 W/m2
15:25 27.8 °F 24.2 °F 30.10 in East 2 mph 3 mph 86% 0.00 in 70 W/m2
15:30 27.8 °F 24.2 °F 30.10 in East 2 mph 2 mph 86% 0.00 in 67 W/m2
15:35 27.7 °F 23.8 °F 30.10 in ESE 2 mph 2 mph 85% 0.00 in 58 W/m2
15:40 27.8 °F 23.9 °F 30.10 in ENE 3 mph 3 mph 85% 0.00 in 63 W/m2
15:45 27.7 °F 23.8 °F 30.11 in East 2 mph 3 mph 85% 0.00 in 53 W/m2
15:50 27.7 °F 23.8 °F 30.10 in ENE 2 mph 3 mph 85% 0.00 in 39 W/m2
15:55 27.7 °F 23.8 °F 30.10 in NNE 2 mph 3 mph 85% 0.00 in 39 W/m2
16:00 27.7 °F 23.8 °F 30.10 in WNW 3 mph 3 mph 85% 0.00 in 35 W/m2
16:05 27.6 °F 24 °F 30.10 in NNW 3 mph 3 mph 86% 0.00 in 39 W/m2
16:10 27.5 °F 23.9 °F 30.10 in SSW 3 mph 3 mph 86% 0.00 in 30 W/m2
16:15 27.4 °F 23.8 °F 30.10 in NW 3 mph 4 mph 86% 0.00 in 32 W/m2
16:20 27.6 °F 24 °F 30.10 in ENE 3 mph 4 mph 86% 0.00 in 30 W/m2
16:25 27.6 °F 24 °F 30.10 in WNW 2 mph 4 mph 86% 0.00 in 19 W/m2
16:30 27.6 °F 24 °F 30.10 in North 2 mph 2 mph 86% 0.00 in 26 W/m2
16:35 27.6 °F 24 °F 30.10 in NE 2 mph 2 mph 86% 0.00 in 19 W/m2
16:40 27.6 °F 24 °F 30.10 in WNW 2 mph 3 mph 86% 0.00 in 19 W/m2
16:45 27.8 °F 24.4 °F 30.10 in NNW 2 mph 3 mph 87% 0.00 in 18 W/m2
16:50 27.7 °F 24.1 °F 30.10 in North 2 mph 4 mph 86% 0.00 in 16 W/m2
16:55 27.7 °F 24.1 °F 30.10 in NNW 2 mph 4 mph 86% 0.00 in 12 W/m2
17:00 27.7 °F 24.1 °F 30.10 in West 2 mph 4 mph 86% 0.00 in 12 W/m2
17:05 27.7 °F 23.8 °F 30.10 in NE 2 mph 4 mph 85% 0.00 in 11 W/m2
17:10 27.7 °F 23.8 °F 30.10 in NE 2 mph 2 mph 85% 0.00 in 7 W/m2
17:15 27.7 °F 23.8 °F 30.10 in NNW 2 mph 2 mph 85% 0.00 in 7 W/m2
17:20 27.7 °F 23.8 °F 30.10 in WNW 2 mph 2 mph 85% 0.00 in 5 W/m2
17:25 27.6 °F 23.7 °F 30.10 in WNW 2 mph 4 mph 85% 0.00 in 0 W/m2
17:30 27.7 °F 23.8 °F 30.10 in NW 2 mph 2 mph 85% 0.00 in 0 W/m2
17:35 27.7 °F 24.1 °F 30.10 in NNE 2 mph 3 mph 86% 0.00 in 0 W/m2
17:40 27.6 °F 24 °F 30.10 in West 2 mph 2 mph 86% 0.00 in 0 W/m2
17:45 27.6 °F 24 °F 30.11 in NE 2 mph 2 mph 86% 0.00 in 0 W/m2
17:50 27.6 °F 24 °F 30.11 in NNW 2 mph 2 mph 86% 0.00 in 0 W/m2
17:55 27.6 °F 24 °F 30.11 in NE 2 mph 2 mph 86% 0.00 in 0 W/m2
18:00 27.6 °F 24 °F 30.11 in North 2 mph 4 mph 86% 0.00 in 0 W/m2
18:05 27.5 °F 23.9 °F 30.11 in NE 3 mph 4 mph 86% 0.00 in 0 W/m2
18:10 27.5 °F 23.9 °F 30.11 in ENE 3 mph 3 mph 86% 0.00 in 0 W/m2
18:15 27.5 °F 23.6 °F 30.12 in North 3 mph 3 mph 85% 0.00 in 0 W/m2
18:20 27.6 °F 23.7 °F 30.12 in North 3 mph 3 mph 85% 0.00 in 0 W/m2
18:25 27.5 °F 23.6 °F 30.12 in North 3 mph 3 mph 85% 0.00 in 0 W/m2
18:30 27.5 °F 23.6 °F 30.12 in North 3 mph 3 mph 85% 0.00 in 0 W/m2
18:35 27.6 °F 23.7 °F 30.12 in NNW 3 mph 3 mph 85% 0.00 in 0 W/m2
18:40 27.6 °F 23.7 °F 30.12 in North 3 mph 3 mph 85% 0.00 in 0 W/m2
18:45 27.5 °F 23.6 °F 30.11 in North 2 mph 3 mph 85% 0.00 in 0 W/m2
18:50 27.5 °F 23.6 °F 30.11 in North 2 mph 3 mph 85% 0.00 in 0 W/m2
18:55 27.3 °F 23.4 °F 30.12 in North 2 mph 3 mph 85% 0.00 in 0 W/m2
19:00 27.1 °F 23.5 °F 30.12 in North 2 mph 3 mph 86% 0.00 in 0 W/m2
19:05 27 °F 23.1 °F 30.12 in NW 2 mph 3 mph 85% 0.00 in 0 W/m2
19:10 26.8 °F 22.9 °F 30.12 in North 2 mph 3 mph 85% 0.00 in 0 W/m2
19:15 26.8 °F 22.9 °F 30.12 in NNE 2 mph 3 mph 85% 0.00 in 0 W/m2
19:20 26.8 °F 22.9 °F 30.12 in NNW 2 mph 2 mph 85% 0.00 in 0 W/m2
19:25 26.8 °F 22.9 °F 30.12 in North 2 mph 2 mph 85% 0.00 in 0 W/m2
19:30 26.6 °F 22.7 °F 30.12 in NNW 2 mph 2 mph 85% 0.00 in 0 W/m2
19:35 26.6 °F 22.7 °F 30.11 in NNW 2 mph 2 mph 85% 0.00 in 0 W/m2
19:40 26.5 °F 22.9 °F 30.11 in NW 1 mph 2 mph 86% 0.00 in 0 W/m2
19:45 26.4 °F 22.8 °F 30.11 in North 1 mph 2 mph 86% 0.00 in 0 W/m2
19:50 26.5 °F 22.9 °F 30.11 in NNW 2 mph 3 mph 86% 0.00 in 0 W/m2
19:55 26.5 °F 22.9 °F 30.11 in NE 1 mph 3 mph 86% 0.00 in 0 W/m2
20:00 26.6 °F 23 °F 30.11 in NNW 2 mph 2 mph 86% 0.00 in 0 W/m2
20:05 26.7 °F 23.1 °F 30.11 in NNW 2 mph 3 mph 86% 0.00 in 0 W/m2
20:10 26.8 °F 23.2 °F 30.11 in NNE 2 mph 2 mph 86% 0.00 in 0 W/m2
20:15 26.8 °F 23.2 °F 30.10 in NNE 2 mph 3 mph 86% 0.00 in 0 W/m2
20:20 26.8 °F 23.2 °F 30.10 in NNW 2 mph 3 mph 86% 0.00 in 0 W/m2
20:25 26.9 °F 23.3 °F 30.10 in North 2 mph 3 mph 86% 0.00 in 0 W/m2
20:30 26.9 °F 23.3 °F 30.10 in North 2 mph 2 mph 86% 0.00 in 0 W/m2
20:35 26.9 °F 23.3 °F 30.10 in North 3 mph 3 mph 86% 0.00 in 0 W/m2
20:40 26.9 °F 23.3 °F 30.10 in NNW 3 mph 3 mph 86% 0.00 in 0 W/m2
20:45 26.9 °F 23.3 °F 30.10 in NE 3 mph 3 mph 86% 0.00 in 0 W/m2
20:50 27 °F 23.4 °F 30.10 in North 3 mph 3 mph 86% 0.00 in 0 W/m2
20:55 27 °F 23.4 °F 30.10 in North 2 mph 3 mph 86% 0.00 in 0 W/m2
21:00 27 °F 23.4 °F 30.10 in NNE 2 mph 2 mph 86% 0.00 in 0 W/m2
21:05 27 °F 23.4 °F 30.10 in NE 2 mph 2 mph 86% 0.00 in 0 W/m2
21:10 27 °F 23.4 °F 30.11 in NNE 2 mph 2 mph 86% 0.00 in 0 W/m2
21:15 27 °F 23.4 °F 30.11 in NE 2 mph 2 mph 86% 0.00 in 0 W/m2
21:20 27 °F 23.4 °F 30.10 in SE 2 mph 2 mph 86% 0.00 in 0 W/m2
21:25 27 °F 23.6 °F 30.10 in NNE 2 mph 2 mph 87% 0.00 in 0 W/m2
21:30 27 °F 23.6 °F 30.10 in SW 2 mph 2 mph 87% 0.00 in 0 W/m2
21:35 27 °F 23.6 °F 30.10 in North 2 mph 4 mph 87% 0.00 in 0 W/m2
21:40 27 °F 23.6 °F 30.10 in NE 3 mph 3 mph 87% 0.00 in 0 W/m2
21:45 27.1 °F 23.5 °F 30.10 in NNE 3 mph 3 mph 86% 0.00 in 0 W/m2
21:50 27.1 °F 23.5 °F 30.10 in NNE 3 mph 4 mph 86% 0.00 in 0 W/m2
21:55 27.1 °F 23.5 °F 30.10 in ENE 3 mph 4 mph 86% 0.00 in 0 W/m2
22:00 27.2 °F 23.6 °F 30.10 in ESE 3 mph 3 mph 86% 0.00 in 0 W/m2
22:05 27.2 °F 23.6 °F 30.10 in ESE 3 mph 3 mph 86% 0.00 in 0 W/m2
22:10 27.2 °F 23.6 °F 30.10 in SSE 3 mph 3 mph 86% 0.00 in 0 W/m2
22:15 27.2 °F 23.6 °F 30.10 in SSW 4 mph 4 mph 86% 0.00 in 0 W/m2
22:20 27.1 °F 23.5 °F 30.10 in South 4 mph 4 mph 86% 0.00 in 0 W/m2
22:25 27.1 °F 23.5 °F 30.10 in SSE 5 mph 5 mph 86% 0.00 in 0 W/m2
22:30 27.1 °F 23.5 °F 30.10 in South 4 mph 4 mph 86% 0.00 in 0 W/m2
22:35 27 °F 23.4 °F 30.10 in SSW 4 mph 4 mph 86% 0.00 in 0 W/m2
22:40 27.1 °F 23.5 °F 30.10 in SSW 4 mph 4 mph 86% 0.00 in 0 W/m2
22:45 27 °F 23.1 °F 30.10 in South 5 mph 9 mph 85% 0.00 in 0 W/m2
22:50 27 °F 23.1 °F 30.10 in SSW 6 mph 8 mph 85% 0.00 in 0 W/m2
22:55 27 °F 23.1 °F 30.10 in SSW 7 mph 8 mph 85% 0.00 in 0 W/m2
23:00 27 °F 23.1 °F 30.10 in SSW 7 mph 7 mph 85% 0.00 in 0 W/m2
23:05 27 °F 23.1 °F 30.10 in South 6 mph 7 mph 85% 0.00 in 0 W/m2
23:10 27 °F 23.1 °F 30.10 in SSW 6 mph 6 mph 85% 0.00 in 0 W/m2
23:15 27 °F 23.1 °F 30.10 in SSW 6 mph 6 mph 85% 0.00 in 0 W/m2
23:20 27.1 °F 23.2 °F 30.10 in South 6 mph 6 mph 85% 0.00 in 0 W/m2
23:25 27.1 °F 23.2 °F 30.10 in SSW 5 mph 7 mph 85% 0.00 in 0 W/m2
23:30 27.1 °F 23.2 °F 30.10 in SSW 5 mph 6 mph 85% 0.00 in 0 W/m2
23:35 27.1 °F 23.5 °F 30.10 in SSE 5 mph 9 mph 86% 0.00 in 0 W/m2
23:40 27.2 °F 23.6 °F 30.11 in SW 5 mph 5 mph 86% 0.00 in 0 W/m2
23:45 27.1 °F 23.5 °F 30.10 in SSW 4 mph 5 mph 86% 0.00 in 0 W/m2
23:50 27.1 °F 23.5 °F 30.11 in SSW 3 mph 6 mph 86% 0.00 in 0 W/m2
23:55 27.1 °F 23.5 °F 30.11 in SSW 4 mph 6 mph 86% 0.00 in 0 W/m2
Sand Point, Michigan, USA
Compliments of Weather Underground - 2 mb